sensor_id;sensor_type;location;lat;lon;timestamp;pressure;altitude;pressure_sealevel;temperature;humidity
31357;BME280;60001;48.404;11.738;2023-04-19T00:00:57;96754.81;;;9.18;82.48
31357;BME280;60001;48.404;11.738;2023-04-19T00:02:31;96758.00;;;9.20;82.80
31357;BME280;60001;48.404;11.738;2023-04-19T00:04:03;96753.28;;;9.22;83.01
31357;BME280;60001;48.404;11.738;2023-04-19T00:05:36;96755.38;;;9.20;82.89
31357;BME280;60001;48.404;11.738;2023-04-19T00:07:08;96736.13;;;9.08;82.64
31357;BME280;60001;48.404;11.738;2023-04-19T00:08:40;96750.53;;;9.17;82.96
31357;BME280;60001;48.404;11.738;2023-04-19T00:10:11;96747.34;;;9.15;83.11
31357;BME280;60001;48.404;11.738;2023-04-19T00:11:43;96749.19;;;9.15;83.22
31357;BME280;60001;48.404;11.738;2023-04-19T00:13:14;96746.44;;;9.10;83.51
31357;BME280;60001;48.404;11.738;2023-04-19T00:14:46;96748.50;;;9.07;84.19
31357;BME280;60001;48.404;11.738;2023-04-19T00:16:20;96733.63;;;9.01;84.43
31357;BME280;60001;48.404;11.738;2023-04-19T00:17:52;96741.28;;;9.03;84.72
31357;BME280;60001;48.404;11.738;2023-04-19T00:19:23;96738.66;;;9.03;85.16
31357;BME280;60001;48.404;11.738;2023-04-19T00:20:56;96744.63;;;8.98;85.52
31357;BME280;60001;48.404;11.738;2023-04-19T00:22:28;96741.41;;;8.96;85.90
31357;BME280;60001;48.404;11.738;2023-04-19T00:24:01;96741.88;;;8.93;86.18
31357;BME280;60001;48.404;11.738;2023-04-19T00:25:33;96744.16;;;8.90;86.57
31357;BME280;60001;48.404;11.738;2023-04-19T00:27:05;96750.25;;;8.90;86.94
31357;BME280;60001;48.404;11.738;2023-04-19T00:28:36;96730.88;;;8.85;86.96
31357;BME280;60001;48.404;11.738;2023-04-19T00:30:08;96738.69;;;8.91;87.19
31357;BME280;60001;48.404;11.738;2023-04-19T00:31:40;96731.44;;;8.87;86.94
31357;BME280;60001;48.404;11.738;2023-04-19T00:33:12;96736.59;;;8.93;87.18
31357;BME280;60001;48.404;11.738;2023-04-19T00:34:43;96734.53;;;8.95;86.98
31357;BME280;60001;48.404;11.738;2023-04-19T00:36:16;96722.75;;;8.86;87.38
31357;BME280;60001;48.404;11.738;2023-04-19T00:37:48;96727.44;;;8.96;87.50
31357;BME280;60001;48.404;11.738;2023-04-19T00:39:19;96724.00;;;8.95;87.47
31357;BME280;60001;48.404;11.738;2023-04-19T00:40:51;96726.63;;;8.95;87.16
31357;BME280;60001;48.404;11.738;2023-04-19T00:42:23;96721.13;;;8.97;87.97
31357;BME280;60001;48.404;11.738;2023-04-19T00:43:53;96719.88;;;8.99;87.31
31357;BME280;60001;48.404;11.738;2023-04-19T00:45:25;96716.22;;;9.00;87.21
31357;BME280;60001;48.404;11.738;2023-04-19T00:46:56;96717.25;;;8.99;87.19
31357;BME280;60001;48.404;11.738;2023-04-19T00:48:28;96716.69;;;8.97;87.46
31357;BME280;60001;48.404;11.738;2023-04-19T00:50:02;96714.06;;;8.97;87.46
31357;BME280;60001;48.404;11.738;2023-04-19T00:51:35;96713.34;;;9.02;87.54
31357;BME280;60001;48.404;11.738;2023-04-19T00:53:10;96723.19;;;9.06;87.38
31357;BME280;60001;48.404;11.738;2023-04-19T00:54:44;96716.88;;;9.07;87.23
31357;BME280;60001;48.404;11.738;2023-04-19T00:56:16;96717.94;;;9.06;87.24
31357;BME280;60001;48.404;11.738;2023-04-19T00:57:49;96716.88;;;9.07;87.13
31357;BME280;60001;48.404;11.738;2023-04-19T00:59:21;96701.78;;;9.03;87.30
31357;BME280;60001;48.404;11.738;2023-04-19T01:00:53;96712.53;;;9.13;87.19
31357;BME280;60001;48.404;11.738;2023-04-19T01:02:25;96714.69;;;9.16;87.25
31357;BME280;60001;48.404;11.738;2023-04-19T01:03:57;96714.44;;;9.18;86.93
31357;BME280;60001;48.404;11.738;2023-04-19T01:05:30;96715.50;;;9.17;86.86
31357;BME280;60001;48.404;11.738;2023-04-19T01:07:03;96710.81;;;9.19;86.72
31357;BME280;60001;48.404;11.738;2023-04-19T01:08:36;96714.44;;;9.18;86.91
31357;BME280;60001;48.404;11.738;2023-04-19T01:10:07;96707.38;;;9.18;86.58
31357;BME280;60001;48.404;11.738;2023-04-19T01:11:39;96712.06;;;9.16;86.69
31357;BME280;60001;48.404;11.738;2023-04-19T01:13:10;96709.41;;;9.16;86.55
31357;BME280;60001;48.404;11.738;2023-04-19T01:14:42;96711.03;;;9.17;86.70
31357;BME280;60001;48.404;11.738;2023-04-19T01:16:13;96703.13;;;9.17;86.72
31357;BME280;60001;48.404;11.738;2023-04-19T01:17:45;96703.91;;;9.18;86.77
31357;BME280;60001;48.404;11.738;2023-04-19T01:19:17;96702.09;;;9.18;86.96
31357;BME280;60001;48.404;11.738;2023-04-19T01:20:50;96698.44;;;9.19;86.71
31357;BME280;60001;48.404;11.738;2023-04-19T01:22:24;96697.41;;;9.20;86.79
31357;BME280;60001;48.404;11.738;2023-04-19T01:23:54;96696.59;;;9.20;86.70
31357;BME280;60001;48.404;11.738;2023-04-19T01:25:26;96685.72;;;9.16;86.45
31357;BME280;60001;48.404;11.738;2023-04-19T01:26:57;96700.03;;;9.20;86.48
31357;BME280;60001;48.404;11.738;2023-04-19T01:28:29;96692.69;;;9.22;86.19
31357;BME280;60001;48.404;11.738;2023-04-19T01:30:01;96686.63;;;9.22;86.42
31357;BME280;60001;48.404;11.738;2023-04-19T01:31:33;96688.81;;;9.25;86.14
31357;BME280;60001;48.404;11.738;2023-04-19T01:33:04;96687.19;;;9.24;86.65
31357;BME280;60001;48.404;11.738;2023-04-19T01:34:36;96683.75;;;9.23;86.66
31357;BME280;60001;48.404;11.738;2023-04-19T01:36:08;96680.91;;;9.25;86.79
31357;BME280;60001;48.404;11.738;2023-04-19T01:37:41;96679.63;;;9.27;86.58
31357;BME280;60001;48.404;11.738;2023-04-19T01:39:13;96684.53;;;9.24;86.68
31357;BME280;60001;48.404;11.738;2023-04-19T01:40:45;96682.50;;;9.26;86.56
31357;BME280;60001;48.404;11.738;2023-04-19T01:42:18;96679.50;;;9.22;86.22
31357;BME280;60001;48.404;11.738;2023-04-19T01:43:49;96682.38;;;9.21;86.21
31357;BME280;60001;48.404;11.738;2023-04-19T01:45:20;96681.59;;;9.20;86.14
31357;BME280;60001;48.404;11.738;2023-04-19T01:46:52;96668.06;;;9.17;85.93
31357;BME280;60001;48.404;11.738;2023-04-19T01:48:24;96674.50;;;9.21;86.42
31357;BME280;60001;48.404;11.738;2023-04-19T01:49:56;96675.28;;;9.21;86.20
31357;BME280;60001;48.404;11.738;2023-04-19T01:51:27;96665.31;;;9.23;86.19
31357;BME280;60001;48.404;11.738;2023-04-19T01:53:00;96661.56;;;9.19;85.86
31357;BME280;60001;48.404;11.738;2023-04-19T01:54:32;96662.22;;;9.26;85.85
31357;BME280;60001;48.404;11.738;2023-04-19T01:56:03;96660.38;;;9.27;85.87
31357;BME280;60001;48.404;11.738;2023-04-19T01:57:35;96661.41;;;9.26;85.96
31357;BME280;60001;48.404;11.738;2023-04-19T01:59:07;96656.72;;;9.28;86.12
31357;BME280;60001;48.404;11.738;2023-04-19T02:00:39;96659.59;;;9.26;86.20
31357;BME280;60001;48.404;11.738;2023-04-19T02:02:10;96662.22;;;9.26;86.13
31357;BME280;60001;48.404;11.738;2023-04-19T02:03:42;96650.53;;;9.22;86.26
31357;BME280;60001;48.404;11.738;2023-04-19T02:05:13;96654.56;;;9.25;86.28
31357;BME280;60001;48.404;11.738;2023-04-19T02:06:45;96654.31;;;9.26;86.29
31357;BME280;60001;48.404;11.738;2023-04-19T02:08:18;96650.28;;;9.24;86.03
31357;BME280;60001;48.404;11.738;2023-04-19T02:09:50;96650.78;;;9.21;86.36
31357;BME280;60001;48.404;11.738;2023-04-19T02:11:21;96648.47;;;9.24;86.21
31357;BME280;60001;48.404;11.738;2023-04-19T02:12:53;96647.44;;;9.25;85.88
31357;BME280;60001;48.404;11.738;2023-04-19T02:14:24;96650.09;;;9.25;85.91
31357;BME280;60001;48.404;11.738;2023-04-19T02:15:55;96648.25;;;9.26;86.19
31357;BME280;60001;48.404;11.738;2023-04-19T02:17:27;96653.72;;;9.24;85.83
31357;BME280;60001;48.404;11.738;2023-04-19T02:18:59;96648.13;;;9.21;85.71
31357;BME280;60001;48.404;11.738;2023-04-19T02:20:31;96648.38;;;9.19;85.57
31357;BME280;60001;48.404;11.738;2023-04-19T02:22:02;96645.75;;;9.19;85.71
31357;BME280;60001;48.404;11.738;2023-04-19T02:23:36;96635.56;;;9.11;85.43
31357;BME280;60001;48.404;11.738;2023-04-19T02:25:08;96645.97;;;9.18;85.94
31357;BME280;60001;48.404;11.738;2023-04-19T02:26:39;96643.31;;;9.18;85.40
31357;BME280;60001;48.404;11.738;2023-04-19T02:28:11;96639.69;;;9.19;85.51
31357;BME280;60001;48.404;11.738;2023-04-19T02:29:43;96644.16;;;9.18;85.59
31357;BME280;60001;48.404;11.738;2023-04-19T02:31:16;96638.41;;;9.21;85.65
31357;BME280;60001;48.404;11.738;2023-04-19T02:32:51;96641.28;;;9.20;85.41
31357;BME280;60001;48.404;11.738;2023-04-19T02:34:26;96639.19;;;9.22;85.37
31357;BME280;60001;48.404;11.738;2023-04-19T02:35:57;96636.56;;;9.22;85.51
31357;BME280;60001;48.404;11.738;2023-04-19T02:37:28;96635.53;;;9.23;85.47
31357;BME280;60001;48.404;11.738;2023-04-19T02:39:01;96639.19;;;9.22;85.14
31357;BME280;60001;48.404;11.738;2023-04-19T02:40:38;96637.34;;;9.22;85.48
31357;BME280;60001;48.404;11.738;2023-04-19T02:42:09;96628.09;;;9.20;84.99
31357;BME280;60001;48.404;11.738;2023-04-19T02:43:41;96633.13;;;9.21;84.85
31357;BME280;60001;48.404;11.738;2023-04-19T02:45:13;96631.28;;;9.22;84.86
31357;BME280;60001;48.404;11.738;2023-04-19T02:46:47;96627.50;;;9.18;84.94
31357;BME280;60001;48.404;11.738;2023-04-19T02:48:19;96626.59;;;9.24;85.08
31357;BME280;60001;48.404;11.738;2023-04-19T02:49:51;96632.31;;;9.21;85.14
31357;BME280;60001;48.404;11.738;2023-04-19T02:51:23;96623.88;;;9.19;85.00
31357;BME280;60001;48.404;11.738;2023-04-19T02:52:56;96625.78;;;9.23;84.73
31357;BME280;60001;48.404;11.738;2023-04-19T02:54:30;96622.59;;;9.21;84.87
31357;BME280;60001;48.404;11.738;2023-04-19T02:56:02;96622.59;;;9.21;84.92
31357;BME280;60001;48.404;11.738;2023-04-19T02:57:34;96631.06;;;9.23;84.61
31357;BME280;60001;48.404;11.738;2023-04-19T02:59:05;96624.97;;;9.23;84.81
31357;BME280;60001;48.404;11.738;2023-04-19T03:00:37;96626.25;;;9.20;84.92
31357;BME280;60001;48.404;11.738;2023-04-19T03:02:09;96627.06;;;9.21;84.65
31357;BME280;60001;48.404;11.738;2023-04-19T03:03:40;96621.56;;;9.22;84.58
31357;BME280;60001;48.404;11.738;2023-04-19T03:05:11;96619.97;;;9.21;85.03
31357;BME280;60001;48.404;11.738;2023-04-19T03:06:42;96621.91;;;9.26;84.88
31357;BME280;60001;48.404;11.738;2023-04-19T03:08:14;96622.84;;;9.20;85.06
31357;BME280;60001;48.404;11.738;2023-04-19T03:09:48;96609.31;;;9.16;85.12
31357;BME280;60001;48.404;11.738;2023-04-19T03:11:20;96609.97;;;9.23;84.88
31357;BME280;60001;48.404;11.738;2023-04-19T03:12:51;96605.50;;;9.24;84.81
31357;BME280;60001;48.404;11.738;2023-04-19T03:14:23;96611.81;;;9.23;84.61
31357;BME280;60001;48.404;11.738;2023-04-19T03:15:54;96610.22;;;9.22;84.70
31357;BME280;60001;48.404;11.738;2023-04-19T03:17:26;96614.44;;;9.23;84.59
31357;BME280;60001;48.404;11.738;2023-04-19T03:18:58;96605.63;;;9.17;84.51
31357;BME280;60001;48.404;11.738;2023-04-19T03:20:30;96610.22;;;9.22;84.35
31357;BME280;60001;48.404;11.738;2023-04-19T03:22:01;96613.66;;;9.22;84.54
31357;BME280;60001;48.404;11.738;2023-04-19T03:23:33;96605.97;;;9.21;84.64
31357;BME280;60001;48.404;11.738;2023-04-19T03:25:07;96611.25;;;9.21;84.63
31357;BME280;60001;48.404;11.738;2023-04-19T03:26:41;96604.16;;;9.21;84.59
31357;BME280;60001;48.404;11.738;2023-04-19T03:28:12;96602.22;;;9.17;84.51
31357;BME280;60001;48.404;11.738;2023-04-19T03:29:44;96601.50;;;9.21;84.52
31357;BME280;60001;48.404;11.738;2023-04-19T03:31:16;96598.63;;;9.23;84.17
31357;BME280;60001;48.404;11.738;2023-04-19T03:32:51;96600.22;;;9.24;84.37
31357;BME280;60001;48.404;11.738;2023-04-19T03:34:22;96597.53;;;9.19;84.44
31357;BME280;60001;48.404;11.738;2023-04-19T03:35:53;96593.06;;;9.19;84.02
31357;BME280;60001;48.404;11.738;2023-04-19T03:37:25;96592.16;;;9.14;83.59
31357;BME280;60001;48.404;11.738;2023-04-19T03:38:57;96593.44;;;9.11;83.74
31357;BME280;60001;48.404;11.738;2023-04-19T03:40:31;96595.47;;;9.09;84.10
31357;BME280;60001;48.404;11.738;2023-04-19T03:42:03;96594.91;;;9.07;84.13
31357;BME280;60001;48.404;11.738;2023-04-19T03:43:35;96592.53;;;9.05;83.89
31357;BME280;60001;48.404;11.738;2023-04-19T03:45:08;96584.03;;;9.03;83.90
31357;BME280;60001;48.404;11.738;2023-04-19T03:46:43;96587.72;;;9.02;84.26
31357;BME280;60001;48.404;11.738;2023-04-19T03:48:15;96583.03;;;9.04;84.14
31357;BME280;60001;48.404;11.738;2023-04-19T03:49:47;96590.69;;;9.06;84.05
31357;BME280;60001;48.404;11.738;2023-04-19T03:51:19;96588.06;;;9.06;84.15
31357;BME280;60001;48.404;11.738;2023-04-19T03:52:51;96580.84;;;9.01;83.85
31357;BME280;60001;48.404;11.738;2023-04-19T03:54:24;96584.88;;;9.04;84.08
31357;BME280;60001;48.404;11.738;2023-04-19T03:55:57;96585.66;;;9.04;84.16
31357;BME280;60001;48.404;11.738;2023-04-19T03:57:29;96588.31;;;9.04;84.37
31357;BME280;60001;48.404;11.738;2023-04-19T03:59:00;96588.31;;;9.04;84.11
31357;BME280;60001;48.404;11.738;2023-04-19T04:00:32;96590.13;;;9.04;83.98
31357;BME280;60001;48.404;11.738;2023-04-19T04:02:04;96588.75;;;9.01;83.93
31357;BME280;60001;48.404;11.738;2023-04-19T04:03:36;96587.72;;;9.02;83.79
31357;BME280;60001;48.404;11.738;2023-04-19T04:05:07;96590.34;;;9.02;83.95
31357;BME280;60001;48.404;11.738;2023-04-19T04:06:39;96589.53;;;9.02;84.03
31357;BME280;60001;48.404;11.738;2023-04-19T04:08:11;96576.84;;;8.99;83.88
31357;BME280;60001;48.404;11.738;2023-04-19T04:09:43;96587.72;;;9.02;83.64
31357;BME280;60001;48.404;11.738;2023-04-19T04:11:19;96584.53;;;9.00;83.89
31357;BME280;60001;48.404;11.738;2023-04-19T04:12:51;96588.44;;;8.98;83.64
31357;BME280;60001;48.404;11.738;2023-04-19T04:14:23;96586.00;;;8.96;84.03
31357;BME280;60001;48.404;11.738;2023-04-19T04:15:55;96583.38;;;8.96;84.00
31357;BME280;60001;48.404;11.738;2023-04-19T04:17:26;96583.84;;;8.93;84.15
31357;BME280;60001;48.404;11.738;2023-04-19T04:18:57;96587.84;;;8.96;84.16
31357;BME280;60001;48.404;11.738;2023-04-19T04:20:28;96580.75;;;8.96;84.11
31357;BME280;60001;48.404;11.738;2023-04-19T04:22:01;96585.94;;;8.91;84.48
31357;BME280;60001;48.404;11.738;2023-04-19T04:23:33;96583.63;;;8.95;84.42
31357;BME280;60001;48.404;11.738;2023-04-19T04:25:06;96580.97;;;8.95;84.38
31357;BME280;60001;48.404;11.738;2023-04-19T04:26:39;96568.66;;;8.84;84.34
31357;BME280;60001;48.404;11.738;2023-04-19T04:28:11;96582.03;;;8.94;84.54
31357;BME280;60001;48.404;11.738;2023-04-19T04:29:42;96590.47;;;8.96;84.28
31357;BME280;60001;48.404;11.738;2023-04-19T04:31:15;96585.81;;;8.98;84.52
31357;BME280;60001;48.404;11.738;2023-04-19T04:32:51;96592.91;;;8.97;84.14
31357;BME280;60001;48.404;11.738;2023-04-19T04:34:22;96575.72;;;8.95;84.49
31357;BME280;60001;48.404;11.738;2023-04-19T04:35:54;96580.44;;;8.93;84.25
31357;BME280;60001;48.404;11.738;2023-04-19T04:37:27;96580.84;;;9.01;84.50
31357;BME280;60001;48.404;11.738;2023-04-19T04:38:59;96580.28;;;8.99;84.57
31357;BME280;60001;48.404;11.738;2023-04-19T04:40:31;96579.94;;;8.96;84.41
31357;BME280;60001;48.404;11.738;2023-04-19T04:42:04;96575.59;;;8.90;84.54
31357;BME280;60001;48.404;11.738;2023-04-19T04:43:37;96585.00;;;8.97;84.19
31357;BME280;60001;48.404;11.738;2023-04-19T04:45:10;96581.31;;;8.98;84.17
31357;BME280;60001;48.404;11.738;2023-04-19T04:46:42;96585.44;;;8.94;84.07
31357;BME280;60001;48.404;11.738;2023-04-19T04:48:14;96575.06;;;8.88;83.80
31357;BME280;60001;48.404;11.738;2023-04-19T04:49:45;96586.16;;;8.90;83.79
31357;BME280;60001;48.404;11.738;2023-04-19T04:51:20;96586.38;;;8.88;83.92
31357;BME280;60001;48.404;11.738;2023-04-19T04:52:53;96578.84;;;8.80;84.01
31357;BME280;60001;48.404;11.738;2023-04-19T04:54:25;96581.34;;;8.87;84.09
31357;BME280;60001;48.404;11.738;2023-04-19T04:55:57;96586.31;;;8.83;83.89
31357;BME280;60001;48.404;11.738;2023-04-19T04:57:30;96580.78;;;8.85;84.15
31357;BME280;60001;48.404;11.738;2023-04-19T04:59:01;96576.88;;;8.87;84.09
31357;BME280;60001;48.404;11.738;2023-04-19T05:00:33;96582.94;;;8.88;84.30
31357;BME280;60001;48.404;11.738;2023-04-19T05:02:05;96582.41;;;8.86;84.40
31357;BME280;60001;48.404;11.738;2023-04-19T05:03:37;96585.44;;;8.94;84.15
31357;BME280;60001;48.404;11.738;2023-04-19T05:05:08;96575.59;;;8.90;84.35
31357;BME280;60001;48.404;11.738;2023-04-19T05:06:41;96582.94;;;8.99;83.97
31357;BME280;60001;48.404;11.738;2023-04-19T05:08:13;96590.16;;;8.92;83.97
31357;BME280;60001;48.404;11.738;2023-04-19T05:09:45;96586.50;;;8.93;84.35
31357;BME280;60001;48.404;11.738;2023-04-19T05:11:20;96583.63;;;8.95;84.20
31357;BME280;60001;48.404;11.738;2023-04-19T05:12:53;96586.59;;;8.98;84.28
31357;BME280;60001;48.404;11.738;2023-04-19T05:14:25;96584.53;;;9.00;84.44
31357;BME280;60001;48.404;11.738;2023-04-19T05:15:57;96585.66;;;9.04;84.29
31357;BME280;60001;48.404;11.738;2023-04-19T05:17:29;96583.59;;;9.06;84.15
31357;BME280;60001;48.404;11.738;2023-04-19T05:19:00;96585.75;;;9.10;83.73
31357;BME280;60001;48.404;11.738;2023-04-19T05:20:32;96584.69;;;9.11;83.56
31357;BME280;60001;48.404;11.738;2023-04-19T05:22:03;96581.38;;;9.15;83.52
31357;BME280;60001;48.404;11.738;2023-04-19T05:23:35;96585.03;;;9.14;83.38
31357;BME280;60001;48.404;11.738;2023-04-19T05:25:09;96580.56;;;9.15;83.45
31357;BME280;60001;48.404;11.738;2023-04-19T05:26:41;96584.63;;;9.05;82.21
31357;BME280;60001;48.404;11.738;2023-04-19T05:28:14;96575.13;;;9.04;82.57
31357;BME280;60001;48.404;11.738;2023-04-19T05:29:46;96576.84;;;8.99;83.10
31357;BME280;60001;48.404;11.738;2023-04-19T05:31:19;96570.69;;;8.93;82.74
31357;BME280;60001;48.404;11.738;2023-04-19T05:32:52;96578.91;;;8.97;82.92
31357;BME280;60001;48.404;11.738;2023-04-19T05:34:23;96579.38;;;8.94;82.81
31357;BME280;60001;48.404;11.738;2023-04-19T05:35:55;96580.53;;;8.98;82.87
31357;BME280;60001;48.404;11.738;2023-04-19T05:37:27;96579.25;;;9.00;83.00
31357;BME280;60001;48.404;11.738;2023-04-19T05:38:59;96576.38;;;9.02;82.89
31357;BME280;60001;48.404;11.738;2023-04-19T05:40:31;96576.50;;;8.95;82.46
31357;BME280;60001;48.404;11.738;2023-04-19T05:42:04;96576.75;;;8.94;82.74
31357;BME280;60001;48.404;11.738;2023-04-19T05:43:38;96576.09;;;8.87;82.44
31357;BME280;60001;48.404;11.738;2023-04-19T05:45:10;96578.72;;;8.87;82.79
31357;BME280;60001;48.404;11.738;2023-04-19T05:46:44;96572.75;;;8.91;83.45
31357;BME280;60001;48.404;11.738;2023-04-19T05:48:16;96586.50;;;8.93;82.72
31357;BME280;60001;48.404;11.738;2023-04-19T05:49:50;96564.28;;;8.89;82.80
31357;BME280;60001;48.404;11.738;2023-04-19T05:51:22;96578.69;;;8.98;82.54
31357;BME280;60001;48.404;11.738;2023-04-19T05:52:54;96580.06;;;9.01;82.65
31357;BME280;60001;48.404;11.738;2023-04-19T05:54:25;96575.13;;;9.04;82.73
31357;BME280;60001;48.404;11.738;2023-04-19T05:55:57;96574.09;;;9.05;82.64
31357;BME280;60001;48.404;11.738;2023-04-19T05:57:29;96576.78;;;9.11;82.47
31357;BME280;60001;48.404;11.738;2023-04-19T05:59:02;96574.50;;;9.14;82.48
31357;BME280;60001;48.404;11.738;2023-04-19T06:00:34;96581.63;;;9.14;82.63
31357;BME280;60001;48.404;11.738;2023-04-19T06:02:06;96580.81;;;9.13;82.56
31357;BME280;60001;48.404;11.738;2023-04-19T06:03:38;96580.34;;;9.16;82.59
31357;BME280;60001;48.404;11.738;2023-04-19T06:05:10;96578.19;;;9.13;82.05
31357;BME280;60001;48.404;11.738;2023-04-19T06:06:42;96573.38;;;9.10;82.36
31357;BME280;60001;48.404;11.738;2023-04-19T06:08:13;96575.31;;;9.15;82.75
31357;BME280;60001;48.404;11.738;2023-04-19T06:09:46;96576.75;;;9.22;82.51
31357;BME280;60001;48.404;11.738;2023-04-19T06:11:18;96576.31;;;9.25;82.38
31357;BME280;60001;48.404;11.738;2023-04-19T06:12:50;96582.13;;;9.27;81.47
31357;BME280;60001;48.404;11.738;2023-04-19T06:14:26;96576.63;;;9.29;81.99
31357;BME280;60001;48.404;11.738;2023-04-19T06:15:58;96568.81;;;9.34;81.65
31357;BME280;60001;48.404;11.738;2023-04-19T06:17:30;96572.09;;;9.41;81.48
31357;BME280;60001;48.404;11.738;2023-04-19T06:19:02;96572.91;;;9.58;83.02
31357;BME280;60001;48.404;11.738;2023-04-19T06:20:34;96567.75;;;9.97;83.77
31357;BME280;60001;48.404;11.738;2023-04-19T06:22:05;96563.41;;;10.25;81.14
31357;BME280;60001;48.404;11.738;2023-04-19T06:23:37;96565.13;;;10.36;79.59
31357;BME280;60001;48.404;11.738;2023-04-19T06:25:09;96568.00;;;10.51;79.18
31357;BME280;60001;48.404;11.738;2023-04-19T06:26:41;96567.91;;;10.85;79.25
31357;BME280;60001;48.404;11.738;2023-04-19T06:28:12;96565.06;;;11.13;76.90
31357;BME280;60001;48.404;11.738;2023-04-19T06:29:46;96562.25;;;11.52;75.54
31357;BME280;60001;48.404;11.738;2023-04-19T06:31:20;96565.03;;;11.67;73.57
31357;BME280;60001;48.404;11.738;2023-04-19T06:32:52;96557.75;;;11.52;72.68
31357;BME280;60001;48.404;11.738;2023-04-19T06:34:24;96562.00;;;11.53;71.39
31357;BME280;60001;48.404;11.738;2023-04-19T06:35:56;96561.84;;;11.65;71.65
31357;BME280;60001;48.404;11.738;2023-04-19T06:37:28;96560.31;;;11.69;70.46
31357;BME280;60001;48.404;11.738;2023-04-19T06:38:59;96567.84;;;11.83;71.57
31357;BME280;60001;48.404;11.738;2023-04-19T06:40:31;96553.50;;;12.11;70.48
31357;BME280;60001;48.404;11.738;2023-04-19T06:42:03;96561.63;;;12.41;67.68
31357;BME280;60001;48.404;11.738;2023-04-19T06:43:36;96558.44;;;12.39;66.89
31357;BME280;60001;48.404;11.738;2023-04-19T06:45:13;96562.19;;;12.48;67.39
31357;BME280;60001;48.404;11.738;2023-04-19T06:46:45;96557.00;;;12.21;67.18
31357;BME280;60001;48.404;11.738;2023-04-19T06:48:19;96553.56;;;12.21;67.69
31357;BME280;60001;48.404;11.738;2023-04-19T06:49:51;96550.06;;;12.15;67.82
31357;BME280;60001;48.404;11.738;2023-04-19T06:51:23;96553.94;;;11.97;68.12
31357;BME280;60001;48.404;11.738;2023-04-19T06:52:55;96550.22;;;11.98;68.61
31357;BME280;60001;48.404;11.738;2023-04-19T06:54:27;96553.13;;;11.97;69.06
31357;BME280;60001;48.404;11.738;2023-04-19T06:55:59;96550.72;;;11.95;69.31
31357;BME280;60001;48.404;11.738;2023-04-19T06:57:32;96554.72;;;11.98;68.94
31357;BME280;60001;48.404;11.738;2023-04-19T06:59:03;96544.63;;;11.90;67.49
31357;BME280;60001;48.404;11.738;2023-04-19T07:00:36;96551.19;;;11.87;67.84
31357;BME280;60001;48.404;11.738;2023-04-19T07:02:08;96554.16;;;11.91;67.80
31357;BME280;60001;48.404;11.738;2023-04-19T07:03:40;96550.66;;;11.85;67.52
31357;BME280;60001;48.404;11.738;2023-04-19T07:05:12;96545.84;;;11.82;68.53
31357;BME280;60001;48.404;11.738;2023-04-19T07:06:47;96541.66;;;11.86;68.57
31357;BME280;60001;48.404;11.738;2023-04-19T07:08:19;96542.47;;;11.87;69.52
31357;BME280;60001;48.404;11.738;2023-04-19T07:09:51;96544.84;;;11.88;68.62
31357;BME280;60001;48.404;11.738;2023-04-19T07:11:23;96532.19;;;11.90;69.17
31357;BME280;60001;48.404;11.738;2023-04-19T07:12:55;96536.41;;;11.91;68.86
31357;BME280;60001;48.404;11.738;2023-04-19T07:14:26;96528.47;;;11.91;68.85
31357;BME280;60001;48.404;11.738;2023-04-19T07:16:02;96529.28;;;11.92;68.45
31357;BME280;60001;48.404;11.738;2023-04-19T07:17:34;96537.00;;;11.98;69.09
31357;BME280;60001;48.404;11.738;2023-04-19T07:19:07;96533.84;;;12.01;68.88
31357;BME280;60001;48.404;11.738;2023-04-19T07:20:38;96535.94;;;11.99;69.29
31357;BME280;60001;48.404;11.738;2023-04-19T07:22:14;96537.03;;;12.03;68.97
31357;BME280;60001;48.404;11.738;2023-04-19T07:23:45;96533.59;;;12.08;68.74
31357;BME280;60001;48.404;11.738;2023-04-19T07:25:20;96530.78;;;12.20;69.68
31357;BME280;60001;48.404;11.738;2023-04-19T07:26:52;96536.06;;;12.20;68.60
31357;BME280;60001;48.404;11.738;2023-04-19T07:28:24;96513.00;;;12.15;68.35
31357;BME280;60001;48.404;11.738;2023-04-19T07:29:55;96516.19;;;12.12;68.10
31357;BME280;60001;48.404;11.738;2023-04-19T07:31:29;96531.03;;;12.18;68.28
31357;BME280;60001;48.404;11.738;2023-04-19T07:33:00;96525.13;;;12.06;68.21
31357;BME280;60001;48.404;11.738;2023-04-19T07:34:36;96519.22;;;11.94;67.91
31357;BME280;60001;48.404;11.738;2023-04-19T07:36:08;96515.72;;;11.83;68.48
31357;BME280;60001;48.404;11.738;2023-04-19T07:37:41;96539.53;;;11.83;68.30
31357;BME280;60001;48.404;11.738;2023-04-19T07:39:13;96530.81;;;11.83;68.95
31357;BME280;60001;48.404;11.738;2023-04-19T07:40:44;96534.72;;;11.80;69.04
31357;BME280;60001;48.404;11.738;2023-04-19T07:42:16;96528.41;;;11.81;69.17
31357;BME280;60001;48.404;11.738;2023-04-19T07:43:50;96529.13;;;11.76;69.48
31357;BME280;60001;48.404;11.738;2023-04-19T07:45:22;96524.38;;;11.78;69.27
31357;BME280;60001;48.404;11.738;2023-04-19T07:46:55;96529.69;;;11.78;69.86
31357;BME280;60001;48.404;11.738;2023-04-19T07:48:27;96523.81;;;11.71;69.71
31357;BME280;60001;48.404;11.738;2023-04-19T07:49:59;96526.50;;;11.76;70.11
31357;BME280;60001;48.404;11.738;2023-04-19T07:51:31;96526.41;;;11.66;69.46
31357;BME280;60001;48.404;11.738;2023-04-19T07:53:03;96524.31;;;11.68;69.68
31357;BME280;60001;48.404;11.738;2023-04-19T07:54:34;96521.69;;;11.68;69.74
31357;BME280;60001;48.404;11.738;2023-04-19T07:56:09;96516.59;;;11.62;69.77
31357;BME280;60001;48.404;11.738;2023-04-19T07:57:41;96521.41;;;11.70;69.57
31357;BME280;60001;48.404;11.738;2023-04-19T07:59:20;96525.34;;;11.67;69.92
31357;BME280;60001;48.404;11.738;2023-04-19T08:00:52;96520.84;;;11.68;69.94
31357;BME280;60001;48.404;11.738;2023-04-19T08:02:26;96530.19;;;11.75;69.72
31357;BME280;60001;48.404;11.738;2023-04-19T08:03:58;96522.00;;;11.77;69.75
31357;BME280;60001;48.404;11.738;2023-04-19T08:05:29;96525.19;;;11.79;69.85
31357;BME280;60001;48.404;11.738;2023-04-19T08:07:01;96516.19;;;11.80;69.35